createdAt,value
2023-02-15T00:01:11.203Z,1028.9
2023-02-15T00:02:27.396Z,1028.8
2023-02-15T00:03:43.584Z,1028.9
2023-02-15T00:04:59.771Z,1028.9
2023-02-15T00:06:15.870Z,1028.9
2023-02-15T00:07:32.140Z,1028.9
2023-02-15T00:08:48.337Z,1028.8
2023-02-15T00:10:04.523Z,1028.9
2023-02-15T00:11:20.626Z,1028.8
2023-02-15T00:12:36.813Z,1028.9
2023-02-15T00:13:52.017Z,1028.8
2023-02-15T00:15:08.303Z,1028.8
2023-02-15T00:16:24.382Z,1028.8
2023-02-15T00:17:40.678Z,1028.8
2023-02-15T00:18:56.856Z,1028.9
2023-02-15T00:20:12.958Z,1028.9
2023-02-15T00:21:29.138Z,1028.8
2023-02-15T00:22:44.469Z,1028.8
2023-02-15T00:23:59.674Z,1028.8
2023-02-15T00:25:15.851Z,1028.7
2023-02-15T00:26:32.039Z,1028.7
2023-02-15T00:27:48.135Z,1028.7
2023-02-15T00:29:04.326Z,1028.6
2023-02-15T00:30:20.604Z,1028.6
2023-02-15T00:31:36.790Z,1028.7
2023-02-15T00:32:52.896Z,1028.6
2023-02-15T00:34:09.188Z,1028.6
2023-02-15T00:35:25.374Z,1028.6
2023-02-15T00:36:41.450Z,1028.6
2023-02-15T00:37:57.646Z,1028.6
2023-02-15T00:39:13.836Z,1028.6
2023-02-15T00:40:29.140Z,1028.6
2023-02-15T00:41:45.331Z,1028.6
2023-02-15T00:43:01.514Z,1028.6
2023-02-15T00:44:17.711Z,1028.5
2023-02-15T00:45:33.792Z,1028.6
2023-02-15T00:46:50.078Z,1028.6
2023-02-15T00:48:06.286Z,1028.6
2023-02-15T00:49:21.398Z,1028.6
2023-02-15T00:50:36.600Z,1028.5
2023-02-15T00:51:51.916Z,1028.6
2023-02-15T00:53:07.127Z,1028.6
2023-02-15T00:54:23.300Z,1028.5
2023-02-15T00:55:39.507Z,1028.5
2023-02-15T00:56:55.696Z,1028.5
2023-02-15T00:58:11.882Z,1028.5
2023-02-15T00:59:28.063Z,1028.6
2023-02-15T01:00:44.161Z,1028.5
2023-02-15T01:02:00.443Z,1028.6
2023-02-15T01:03:16.526Z,1028.6
2023-02-15T01:04:32.719Z,1028.6
2023-02-15T01:05:49.001Z,1028.5
2023-02-15T01:07:05.096Z,1028.6
2023-02-15T01:08:21.396Z,1028.5
2023-02-15T01:09:36.604Z,1028.6
2023-02-15T01:10:52.778Z,1028.6
2023-02-15T01:12:08.984Z,1028.6
2023-02-15T01:13:25.162Z,1028.5
2023-02-15T01:14:41.248Z,1028.5
2023-02-15T01:15:57.549Z,1028.5
2023-02-15T01:17:13.735Z,1028.4
2023-02-15T01:18:28.940Z,1028.4
2023-02-15T01:19:44.053Z,1028.4
2023-02-15T01:21:00.342Z,1028.4
2023-02-15T01:22:16.530Z,1028.4
2023-02-15T01:23:32.725Z,1028.4
2023-02-15T01:24:48.802Z,1028.4
2023-02-15T01:26:05.108Z,1028.4
2023-02-15T01:27:21.191Z,1028.3
2023-02-15T01:28:37.360Z,1028.3
2023-02-15T01:29:53.558Z,1028.3
2023-02-15T01:31:09.866Z,1028.3
2023-02-15T01:32:26.047Z,1028.2
2023-02-15T01:33:42.227Z,1028.3
2023-02-15T01:34:58.430Z,1028.2
2023-02-15T01:36:13.631Z,1028.2
2023-02-15T01:37:29.718Z,1028.2
2023-02-15T01:38:46.013Z,1028.2
2023-02-15T01:40:02.200Z,1028.2
2023-02-15T01:41:18.279Z,1028.1
2023-02-15T01:42:34.571Z,1028.2
2023-02-15T01:43:50.763Z,1028.1
2023-02-15T01:45:05.866Z,1028
2023-02-15T01:46:21.187Z,1028.1
2023-02-15T01:47:37.375Z,1028
2023-02-15T01:48:53.575Z,1028.1
2023-02-15T01:50:09.749Z,1028
2023-02-15T01:51:25.949Z,1028
2023-02-15T01:52:42.012Z,1028
2023-02-15T01:53:58.319Z,1028
2023-02-15T01:55:14.503Z,1027.9
2023-02-15T01:56:30.695Z,1027.9
2023-02-15T01:57:46.769Z,1027.9
2023-02-15T01:59:03.083Z,1027.9
2023-02-15T02:00:19.146Z,1027.9
2023-02-15T02:01:35.449Z,1027.9
2023-02-15T02:02:50.660Z,1027.9
2023-02-15T02:04:06.852Z,1027.9
2023-02-15T02:05:23.030Z,1027.9
2023-02-15T02:06:39.114Z,1027.9
2023-02-15T02:07:55.294Z,1027.8
2023-02-15T02:09:11.488Z,1027.8
2023-02-15T02:10:27.681Z,1027.8
2023-02-15T02:11:42.905Z,1027.8
2023-02-15T02:12:58.105Z,1027.8
2023-02-15T02:14:13.318Z,1027.8
2023-02-15T02:15:28.643Z,1027.7
2023-02-15T02:16:43.748Z,1027.7
2023-02-15T02:17:59.057Z,1027.7
2023-02-15T02:19:14.166Z,1027.7
2023-02-15T02:20:29.484Z,1027.7
2023-02-15T02:21:44.689Z,1027.7
2023-02-15T02:22:59.785Z,1027.7
2023-02-15T02:24:16.089Z,1027.7
2023-02-15T02:25:32.160Z,1027.7
2023-02-15T02:26:48.349Z,1027.6
2023-02-15T02:28:04.659Z,1027.6
2023-02-15T02:29:20.857Z,1027.7
2023-02-15T02:30:37.034Z,1027.7
2023-02-15T02:31:53.100Z,1027.6
2023-02-15T02:33:09.291Z,1027.7
2023-02-15T02:34:25.598Z,1027.6
2023-02-15T02:35:41.788Z,1027.6
2023-02-15T02:36:56.999Z,1027.6
2023-02-15T02:38:13.083Z,1027.6
2023-02-15T02:39:29.378Z,1027.6
2023-02-15T02:40:45.462Z,1027.6
2023-02-15T02:42:01.761Z,1027.6
2023-02-15T02:43:17.942Z,1027.6
2023-02-15T02:44:34.023Z,1027.6
2023-02-15T02:45:50.325Z,1027.6
2023-02-15T02:47:06.405Z,1027.6
2023-02-15T02:48:21.618Z,1027.5
2023-02-15T02:49:36.932Z,1027.5
2023-02-15T02:50:52.036Z,1027.5
2023-02-15T02:52:07.237Z,1027.5
2023-02-15T02:53:23.550Z,1027.4
2023-02-15T02:54:39.744Z,1027.5
2023-02-15T02:55:55.933Z,1027.4
2023-02-15T02:57:12.002Z,1027.4
2023-02-15T02:58:28.310Z,1027.3
2023-02-15T02:59:44.488Z,1027.3
2023-02-15T03:01:00.572Z,1027.4
2023-02-15T03:02:16.865Z,1027.4
2023-02-15T03:03:33.056Z,1027.3
2023-02-15T03:04:49.258Z,1027.3
2023-02-15T03:06:05.433Z,1027.3
2023-02-15T03:07:21.624Z,1027.3
2023-02-15T03:08:36.828Z,1027.3
2023-02-15T03:09:52.907Z,1027.3
2023-02-15T03:11:09.085Z,1027.3
2023-02-15T03:12:25.402Z,1027.3
2023-02-15T03:13:41.592Z,1027.3
2023-02-15T03:14:57.778Z,1027.3
2023-02-15T03:16:13.981Z,1027.3
2023-02-15T03:17:29.193Z,1027.3
2023-02-15T03:18:44.403Z,1027.2
2023-02-15T03:20:00.451Z,1027.2
2023-02-15T03:21:15.798Z,1027.2
2023-02-15T03:22:31.981Z,1027.2
2023-02-15T03:23:48.175Z,1027.2
2023-02-15T03:25:04.486Z,1027.3
2023-02-15T03:26:20.685Z,1027.3
2023-02-15T03:27:36.865Z,1027.3
2023-02-15T03:28:52.932Z,1027.2
2023-02-15T03:30:09.253Z,1027.3
2023-02-15T03:31:25.299Z,1027.3
2023-02-15T03:32:41.618Z,1027.2
2023-02-15T03:33:57.819Z,1027.2
2023-02-15T03:35:13.860Z,1027.2
2023-02-15T03:36:30.071Z,1027.2
2023-02-15T03:37:46.253Z,1027.2
2023-02-15T03:39:01.449Z,1027.2
2023-02-15T03:40:17.778Z,1027.3
2023-02-15T03:41:33.970Z,1027.3
2023-02-15T03:42:50.013Z,1027.2
2023-02-15T03:44:06.332Z,1027.2
2023-02-15T03:45:22.532Z,1027.2
2023-02-15T03:46:38.714Z,1027.2
2023-02-15T03:47:53.804Z,1027.1
2023-02-15T03:49:09.141Z,1027.2
2023-02-15T03:50:25.322Z,1027.2
2023-02-15T03:51:40.538Z,1027.1
2023-02-15T03:52:55.757Z,1027.1
2023-02-15T03:54:11.936Z,1027.1
2023-02-15T03:55:27.996Z,1027.1
2023-02-15T03:56:44.326Z,1027.1
2023-02-15T03:58:00.515Z,1027.1
2023-02-15T03:59:16.564Z,1027.1
2023-02-15T04:00:32.891Z,1027.1
2023-02-15T04:01:48.950Z,1027
2023-02-15T04:03:05.274Z,1027
2023-02-15T04:04:21.328Z,1027
2023-02-15T04:05:37.636Z,1027
2023-02-15T04:06:53.837Z,1026.9
2023-02-15T04:08:10.022Z,1026.9
2023-02-15T04:09:25.223Z,1026.9
2023-02-15T04:10:41.412Z,1027
2023-02-15T04:11:57.602Z,1027
2023-02-15T04:13:13.802Z,1027
2023-02-15T04:14:29.980Z,1026.9
2023-02-15T04:15:46.179Z,1027
2023-02-15T04:17:02.363Z,1027
2023-02-15T04:18:17.582Z,1027
2023-02-15T04:19:33.881Z,1027
2023-02-15T04:20:50.070Z,1027
2023-02-15T04:22:05.156Z,1026.9
2023-02-15T04:23:20.497Z,1026.8
2023-02-15T04:24:36.551Z,1026.8
2023-02-15T04:25:52.730Z,1026.8
2023-02-15T04:27:08.928Z,1026.8
2023-02-15T04:28:25.104Z,1026.8
2023-02-15T04:29:41.295Z,1026.8
2023-02-15T04:30:57.499Z,1026.8
2023-02-15T04:32:13.819Z,1026.8
2023-02-15T04:33:30.001Z,1026.9
2023-02-15T04:34:46.190Z,1026.9
2023-02-15T04:36:02.396Z,1026.8
2023-02-15T04:37:18.432Z,1026.8
2023-02-15T04:38:34.634Z,1026.8
2023-02-15T04:39:49.831Z,1026.8
2023-02-15T04:41:06.159Z,1026.8
2023-02-15T04:42:22.213Z,1026.8
2023-02-15T04:43:38.541Z,1026.8
2023-02-15T04:44:54.592Z,1026.7
2023-02-15T04:46:10.908Z,1026.7
2023-02-15T04:47:26.954Z,1026.7
2023-02-15T04:48:42.331Z,1026.7
2023-02-15T04:49:57.527Z,1026.8
2023-02-15T04:51:13.569Z,1026.7
2023-02-15T04:52:29.896Z,1026.7
2023-02-15T04:53:45.956Z,1026.6
2023-02-15T04:55:01.159Z,1026.7
2023-02-15T04:56:16.526Z,1026.6
2023-02-15T04:57:32.703Z,1026.6
2023-02-15T04:58:48.905Z,1026.6
2023-02-15T05:00:04.938Z,1026.5
2023-02-15T05:01:21.000Z,1026.5
2023-02-15T05:02:37.455Z,1026.5
2023-02-15T05:03:53.507Z,1026.5
2023-02-15T05:05:09.849Z,1026.5
2023-02-15T05:06:26.035Z,1026.5
2023-02-15T05:07:42.211Z,1026.4
2023-02-15T05:08:58.399Z,1026.4
2023-02-15T05:10:14.455Z,1026.4
2023-02-15T05:11:30.645Z,1026.4
2023-02-15T05:12:45.997Z,1026.4
2023-02-15T05:14:02.171Z,1026.4
2023-02-15T05:15:18.366Z,1026.4
2023-02-15T05:16:34.569Z,1026.3
2023-02-15T05:17:50.607Z,1026.3
2023-02-15T05:19:06.935Z,1026.3
2023-02-15T05:20:23.119Z,1026.3
2023-02-15T05:21:38.351Z,1026.3
2023-02-15T05:22:53.396Z,1026.3
2023-02-15T05:24:09.731Z,1026.3
2023-02-15T05:25:25.784Z,1026.3
2023-02-15T05:26:42.122Z,1026.3
2023-02-15T05:27:58.307Z,1026.3
2023-02-15T05:29:14.334Z,1026.3
2023-02-15T05:30:30.679Z,1026.2
2023-02-15T05:31:46.881Z,1026.2
2023-02-15T05:33:02.901Z,1026.3
2023-02-15T05:34:19.255Z,1026.2
2023-02-15T05:35:35.442Z,1026.2
2023-02-15T05:36:51.619Z,1026.2
2023-02-15T05:38:07.675Z,1026.3
2023-02-15T05:39:23.026Z,1026.2
2023-02-15T05:40:39.203Z,1026.3
2023-02-15T05:41:55.259Z,1026.4
2023-02-15T05:43:11.442Z,1026.3
2023-02-15T05:44:27.778Z,1026.4
2023-02-15T05:45:43.818Z,1026.3
2023-02-15T05:47:00.161Z,1026.2
2023-02-15T05:48:15.213Z,1026.3
2023-02-15T05:49:30.438Z,1026.2
2023-02-15T05:50:45.632Z,1026.2
2023-02-15T05:52:01.002Z,1026.2
2023-02-15T05:53:17.028Z,1026.2
2023-02-15T05:54:33.221Z,1026.2
2023-02-15T05:55:49.415Z,1026.2
2023-02-15T05:57:05.754Z,1026.2
2023-02-15T05:58:21.788Z,1026.2
2023-02-15T05:59:38.138Z,1026.2
2023-02-15T06:00:54.164Z,1026.2
2023-02-15T06:02:10.524Z,1026.2
2023-02-15T06:03:26.554Z,1026.2
2023-02-15T06:04:42.732Z,1026.2
2023-02-15T06:05:59.087Z,1026.2
2023-02-15T06:07:15.118Z,1026.2
2023-02-15T06:08:30.481Z,1026.2
2023-02-15T06:09:46.498Z,1026.2
2023-02-15T06:11:02.703Z,1026.2
2023-02-15T06:12:19.043Z,1026.2
2023-02-15T06:13:35.241Z,1026.2
2023-02-15T06:14:51.255Z,1026.2
2023-02-15T06:16:07.602Z,1026.2
2023-02-15T06:17:22.817Z,1026.2
2023-02-15T06:18:37.873Z,1026.2
2023-02-15T06:19:53.239Z,1026.2
2023-02-15T06:21:08.286Z,1026.2
2023-02-15T06:22:23.506Z,1026.2
2023-02-15T06:23:38.727Z,1026.3
2023-02-15T06:24:55.061Z,1026.2
2023-02-15T06:26:11.093Z,1026.2
2023-02-15T06:27:27.287Z,1026.2
2023-02-15T06:28:43.642Z,1026.2
2023-02-15T06:29:59.651Z,1026.2
2023-02-15T06:31:16.011Z,1026.1
2023-02-15T06:32:32.208Z,1026.1
2023-02-15T06:33:48.226Z,1026.1
2023-02-15T06:35:04.582Z,1026.1
2023-02-15T06:36:20.593Z,1026.1
2023-02-15T06:37:36.952Z,1026.1
2023-02-15T06:38:53.129Z,1026.1
2023-02-15T06:40:08.349Z,1026.1
2023-02-15T06:41:24.359Z,1026.1
2023-02-15T06:42:40.720Z,1026
2023-02-15T06:43:56.733Z,1026.1
2023-02-15T06:46:29.113Z,1026.1
2023-02-15T06:47:45.297Z,1026.1
2023-02-15T06:49:01.480Z,1026.1
2023-02-15T06:50:16.865Z,1026.1
2023-02-15T06:51:32.081Z,1026.1
2023-02-15T06:52:48.267Z,1026.1
2023-02-15T06:54:03.310Z,1026.1
2023-02-15T06:55:18.671Z,1026.1
2023-02-15T06:56:34.703Z,1026.1
2023-02-15T06:57:51.054Z,1026.1
2023-02-15T06:59:07.235Z,1026
2023-02-15T07:00:23.425Z,1026.1
2023-02-15T07:01:39.442Z,1026.1
2023-02-15T07:02:55.810Z,1026
2023-02-15T07:04:11.813Z,1026
2023-02-15T07:05:28.176Z,1026
2023-02-15T07:06:44.375Z,1026
2023-02-15T07:08:00.548Z,1026
2023-02-15T07:09:16.736Z,1026
2023-02-15T07:10:32.759Z,1026
2023-02-15T07:11:47.960Z,1026
2023-02-15T07:13:04.317Z,1026
2023-02-15T07:14:20.326Z,1026.1
2023-02-15T07:15:36.704Z,1026
2023-02-15T07:16:52.893Z,1026
2023-02-15T07:18:09.065Z,1026
2023-02-15T07:19:25.071Z,1025.9
2023-02-15T07:20:40.303Z,1025.9
2023-02-15T07:21:55.490Z,1025.9
2023-02-15T07:23:11.693Z,1025.9
2023-02-15T07:24:27.862Z,1025.9
2023-02-15T07:25:43.276Z,1025.9
2023-02-15T07:26:58.288Z,1025.9
2023-02-15T07:28:14.650Z,1025.9
2023-02-15T07:29:30.672Z,1025.9
2023-02-15T07:30:47.040Z,1025.9
2023-02-15T07:32:03.224Z,1025.8
2023-02-15T07:33:19.399Z,1025.8
2023-02-15T07:34:35.405Z,1025.8
2023-02-15T07:35:51.781Z,1025.8
2023-02-15T07:37:07.969Z,1025.7
2023-02-15T07:38:24.168Z,1025.7
2023-02-15T07:39:40.154Z,1025.7
2023-02-15T07:40:56.542Z,1025.7
2023-02-15T07:42:12.542Z,1025.6
2023-02-15T07:43:27.914Z,1025.6
2023-02-15T07:44:43.929Z,1025.6
2023-02-15T07:46:00.123Z,1025.6
2023-02-15T07:47:16.491Z,1025.6
2023-02-15T07:48:32.492Z,1025.6
2023-02-15T07:49:48.667Z,1025.5
2023-02-15T07:51:05.057Z,1025.6
2023-02-15T07:52:20.253Z,1025.6
2023-02-15T07:53:35.457Z,1025.6
2023-02-15T07:54:50.502Z,1025.5
2023-02-15T07:56:05.895Z,1025.5
2023-02-15T07:57:21.893Z,1025.6
2023-02-15T07:58:38.066Z,1025.5
2023-02-15T07:59:54.449Z,1025.5
2023-02-15T08:01:10.436Z,1025.5
2023-02-15T08:02:26.828Z,1025.4
2023-02-15T08:03:43.000Z,1025.5
2023-02-15T08:04:59.002Z,1025.4
2023-02-15T08:06:15.374Z,1025.4
2023-02-15T08:07:31.571Z,1025.4
2023-02-15T08:08:47.750Z,1025.5
2023-02-15T08:10:03.756Z,1025.4
2023-02-15T08:11:20.140Z,1025.5
2023-02-15T08:12:35.155Z,1025.5
2023-02-15T08:13:51.530Z,1025.5
2023-02-15T08:15:07.704Z,1025.5
2023-02-15T08:16:23.700Z,1025.5
2023-02-15T08:17:40.096Z,1025.5
2023-02-15T08:18:56.268Z,1025.5
2023-02-15T08:20:12.457Z,1025.5
2023-02-15T08:21:27.489Z,1025.5
2023-02-15T08:22:42.888Z,1025.4
2023-02-15T08:23:58.095Z,1025.5
2023-02-15T08:25:13.299Z,1025.4
2023-02-15T08:26:29.293Z,1025.5
2023-02-15T08:27:45.474Z,1025.5
2023-02-15T08:29:01.667Z,1025.5
2023-02-15T08:30:18.055Z,1025.5
2023-02-15T08:31:34.032Z,1025.5
2023-02-15T08:32:50.415Z,1025.5
2023-02-15T08:34:06.603Z,1025.5
2023-02-15T08:35:22.602Z,1025.5
2023-02-15T08:36:38.784Z,1025.4
2023-02-15T08:37:54.973Z,1025.4
2023-02-15T08:39:11.173Z,1025.4
2023-02-15T08:40:27.556Z,1025.4
2023-02-15T08:41:42.554Z,1025.3
2023-02-15T08:42:58.735Z,1025.3
2023-02-15T08:44:14.921Z,1025.3
2023-02-15T08:45:31.314Z,1025.3
2023-02-15T08:46:47.305Z,1025.3
2023-02-15T08:48:03.687Z,1025.3
2023-02-15T08:49:19.883Z,1025.3
2023-02-15T08:50:34.881Z,1025.3
2023-02-15T08:51:50.089Z,1025.2
2023-02-15T08:53:06.471Z,1025.2
2023-02-15T08:54:22.670Z,1025.2
2023-02-15T08:55:38.652Z,1025.2
2023-02-15T08:56:55.033Z,1025.2
2023-02-15T08:58:11.000Z,1025.2
2023-02-15T08:59:27.222Z,1025.1
2023-02-15T09:00:43.595Z,1025.1
2023-02-15T09:01:59.788Z,1025.1
2023-02-15T09:03:15.986Z,1025
2023-02-15T09:04:32.160Z,1025
2023-02-15T09:05:48.163Z,1025
2023-02-15T09:07:04.544Z,1025
2023-02-15T09:08:19.733Z,1025
2023-02-15T09:09:35.934Z,1024.9
2023-02-15T09:10:52.123Z,1024.9
2023-02-15T09:12:08.095Z,1025
2023-02-15T09:13:24.489Z,1025
2023-02-15T09:14:40.469Z,1024.9
2023-02-15T09:15:56.869Z,1024.9
2023-02-15T09:17:11.888Z,1024.9
2023-02-15T09:18:27.087Z,1025
2023-02-15T09:19:42.500Z,1025
2023-02-15T09:20:57.496Z,1025
2023-02-15T09:22:13.887Z,1025
2023-02-15T09:23:30.079Z,1025
2023-02-15T09:24:46.055Z,1025
2023-02-15T09:26:02.458Z,1025
2023-02-15T09:27:18.640Z,1025
2023-02-15T09:28:34.622Z,1025
2023-02-15T09:29:51.017Z,1025
2023-02-15T09:31:07.209Z,1025
2023-02-15T09:32:23.401Z,1025
2023-02-15T09:33:39.369Z,1025
2023-02-15T09:34:55.773Z,1025.1
2023-02-15T09:36:11.755Z,1025
2023-02-15T09:37:27.154Z,1025
2023-02-15T09:38:43.347Z,1025
2023-02-15T09:39:59.539Z,1025
2023-02-15T09:41:15.720Z,1025
2023-02-15T09:42:31.704Z,1025
2023-02-15T09:43:47.877Z,1025
2023-02-15T09:45:04.290Z,1025
2023-02-15T09:46:19.490Z,1025
2023-02-15T09:47:34.688Z,1025
2023-02-15T09:48:49.699Z,1025
2023-02-15T09:50:05.126Z,1025
2023-02-15T09:51:21.095Z,1025
2023-02-15T09:52:37.496Z,1025
2023-02-15T09:53:53.688Z,1025
2023-02-15T09:55:09.654Z,1025
2023-02-15T09:56:26.054Z,1025
2023-02-15T09:57:42.243Z,1025
2023-02-15T09:58:58.228Z,1025
2023-02-15T10:00:14.619Z,1024.9
2023-02-15T10:01:30.595Z,1024.9
2023-02-15T10:02:46.769Z,1024.9
2023-02-15T10:04:02.967Z,1024.9
2023-02-15T10:05:19.364Z,1024.9
2023-02-15T10:06:34.348Z,1024.9
2023-02-15T10:07:50.554Z,1024.9
2023-02-15T10:09:06.945Z,1024.8
2023-02-15T10:10:23.129Z,1024.9
2023-02-15T10:11:39.105Z,1024.9
2023-02-15T10:12:55.512Z,1024.9
2023-02-15T10:14:11.478Z,1024.9
2023-02-15T10:15:26.908Z,1024.8
2023-02-15T10:16:42.119Z,1024.8
2023-02-15T10:17:57.108Z,1024.8
2023-02-15T10:19:12.315Z,1024.8
2023-02-15T10:20:28.727Z,1024.8
2023-02-15T10:21:44.700Z,1024.7
2023-02-15T10:23:01.083Z,1024.8
2023-02-15T10:24:17.290Z,1024.8
2023-02-15T10:25:33.462Z,1024.7
2023-02-15T10:26:49.441Z,1024.7
2023-02-15T10:28:05.846Z,1024.7
2023-02-15T10:29:22.025Z,1024.7
2023-02-15T10:30:38.000Z,1024.7
2023-02-15T10:31:54.401Z,1024.7
2023-02-15T10:33:10.382Z,1024.7
2023-02-15T10:34:26.555Z,1024.6
2023-02-15T10:35:41.983Z,1024.6
2023-02-15T10:36:57.964Z,1024.6
2023-02-15T10:38:14.351Z,1024.6
2023-02-15T10:39:30.334Z,1024.6
2023-02-15T10:40:46.510Z,1024.5
2023-02-15T10:42:02.925Z,1024.5
2023-02-15T10:43:18.900Z,1024.6
2023-02-15T10:44:34.101Z,1024.5
2023-02-15T10:45:49.536Z,1024.5
2023-02-15T10:47:05.714Z,1024.4
2023-02-15T10:48:20.923Z,1024.4
2023-02-15T10:49:36.138Z,1024.5
2023-02-15T10:50:52.104Z,1024.4
2023-02-15T10:52:08.279Z,1024.4
2023-02-15T10:53:24.471Z,1024.4
2023-02-15T10:54:40.885Z,1024.4
2023-02-15T10:55:57.061Z,1024.4
2023-02-15T10:57:13.043Z,1024.4
2023-02-15T10:58:29.212Z,1024.4
2023-02-15T10:59:45.420Z,1024.3
2023-02-15T11:01:01.819Z,1024.3
2023-02-15T11:02:18.002Z,1024.3
2023-02-15T11:03:33.965Z,1024.3
2023-02-15T11:04:50.162Z,1024.3
2023-02-15T11:06:05.364Z,1024.3
2023-02-15T11:07:21.553Z,1024.3
2023-02-15T11:08:37.965Z,1024.2
2023-02-15T11:09:54.160Z,1024.2
2023-02-15T11:11:10.114Z,1024.2
2023-02-15T11:12:26.534Z,1024.2
2023-02-15T11:13:42.712Z,1024.2
2023-02-15T11:14:57.714Z,1024.2
2023-02-15T11:16:13.135Z,1024.2
2023-02-15T11:17:28.356Z,1024.2
2023-02-15T11:18:43.315Z,1024.2
2023-02-15T11:19:59.748Z,1024.2
2023-02-15T11:21:15.691Z,1024.1
2023-02-15T11:22:31.000Z,1024.1
2023-02-15T11:23:48.074Z,1024.1
2023-02-15T11:25:04.271Z,1024.1
2023-02-15T11:26:20.673Z,1024
2023-02-15T11:27:36.853Z,1024
2023-02-15T11:28:53.059Z,1024
2023-02-15T11:30:09.012Z,1024.1
2023-02-15T11:31:25.197Z,1024
2023-02-15T11:32:41.606Z,1024
2023-02-15T11:33:57.567Z,1023.9
2023-02-15T11:35:13.005Z,1023.9
2023-02-15T11:36:28.962Z,1024
2023-02-15T11:37:45.152Z,1023.9
2023-02-15T11:39:01.342Z,1023.9
2023-02-15T11:40:17.757Z,1023.9
2023-02-15T11:41:33.942Z,1023.9
2023-02-15T11:42:49.895Z,1023.8
2023-02-15T11:44:06.241Z,1023.8
2023-02-15T11:45:21.445Z,1023.8
2023-02-15T11:46:36.871Z,1023.7
2023-02-15T11:47:52.088Z,1023.6
2023-02-15T11:49:08.269Z,1023.6
2023-02-15T11:50:24.452Z,1023.7
2023-02-15T11:51:40.652Z,1023.6
2023-02-15T11:52:56.603Z,1023.5
2023-02-15T11:54:13.023Z,1023.5
2023-02-15T11:55:29.214Z,1023.5
2023-02-15T11:56:45.397Z,1023.5
2023-02-15T11:58:01.574Z,1023.5
2023-02-15T11:59:17.777Z,1023.5
2023-02-15T12:00:33.727Z,1023.5
2023-02-15T12:01:50.149Z,1023.5
2023-02-15T12:03:06.326Z,1023.4
2023-02-15T12:04:21.291Z,1023.4
2023-02-15T12:05:37.492Z,1023.4
2023-02-15T12:06:53.902Z,1023.5
2023-02-15T12:08:09.866Z,1023.5
2023-02-15T12:09:26.275Z,1023.4
2023-02-15T12:10:42.479Z,1023.4
2023-02-15T12:11:58.667Z,1023.5
2023-02-15T12:13:13.625Z,1023.5
2023-02-15T12:14:29.079Z,1023.4
2023-02-15T12:15:44.296Z,1023.4
2023-02-15T12:16:59.485Z,1023.4
2023-02-15T12:18:15.442Z,1023.4
2023-02-15T12:19:31.872Z,1023.4
2023-02-15T12:20:47.807Z,1023.4
2023-02-15T12:22:04.237Z,1023.4
2023-02-15T12:23:20.195Z,1023.4
2023-02-15T12:24:36.623Z,1023.3
2023-02-15T12:25:52.554Z,1023.3
2023-02-15T12:27:08.759Z,1023.4
2023-02-15T12:28:24.946Z,1023.4
2023-02-15T12:29:41.370Z,1023.3
2023-02-15T12:30:57.312Z,1023.3
2023-02-15T12:32:13.743Z,1023.3
2023-02-15T12:33:28.950Z,1023.2
2023-02-15T12:34:45.123Z,1023.2
2023-02-15T12:36:01.308Z,1023.1
2023-02-15T12:37:17.257Z,1023.2
2023-02-15T12:38:33.440Z,1023.2
2023-02-15T12:39:49.632Z,1023.2
2023-02-15T12:41:06.069Z,1023.2
2023-02-15T12:42:21.029Z,1023.1
2023-02-15T12:43:36.478Z,1023.2
2023-02-15T12:44:51.692Z,1023.2
2023-02-15T12:46:06.661Z,1023.1
2023-02-15T12:47:22.851Z,1023.1
2023-02-15T12:48:39.277Z,1023.1
2023-02-15T12:49:55.220Z,1023
2023-02-15T12:51:11.654Z,1023
2023-02-15T12:52:27.847Z,1023
2023-02-15T12:53:43.770Z,1023
2023-02-15T12:55:00.203Z,1022.9
2023-02-15T12:56:16.390Z,1022.9
2023-02-15T12:57:32.593Z,1022.9
2023-02-15T12:58:48.776Z,1023
2023-02-15T13:00:04.955Z,1023
2023-02-15T13:01:20.910Z,1022.9
2023-02-15T13:02:36.349Z,1022.9
2023-02-15T13:03:52.530Z,1022.8
2023-02-15T13:05:08.482Z,1022.8
2023-02-15T13:06:24.675Z,1022.8
2023-02-15T13:07:41.109Z,1022.8
2023-02-15T13:08:57.051Z,1022.8
2023-02-15T13:10:13.471Z,1022.7
2023-02-15T13:11:28.684Z,1022.7
2023-02-15T13:12:43.888Z,1022.7
2023-02-15T13:13:59.112Z,1022.7
2023-02-15T13:15:14.316Z,1022.6
2023-02-15T13:16:30.241Z,1022.6
2023-02-15T13:17:46.431Z,1022.6
2023-02-15T13:19:02.627Z,1022.6
2023-02-15T13:20:19.055Z,1022.6
2023-02-15T13:21:34.991Z,1022.5
2023-02-15T13:22:51.426Z,1022.7
2023-02-15T13:24:07.359Z,1022.6
2023-02-15T13:25:23.817Z,1022.6
2023-02-15T13:26:40.004Z,1022.6
2023-02-15T13:27:56.173Z,1022.5
2023-02-15T13:29:12.109Z,1022.5
2023-02-15T13:30:28.554Z,1022.4
2023-02-15T13:31:43.510Z,1022.4
2023-02-15T13:32:59.697Z,1022.4
2023-02-15T13:34:16.139Z,1022.4
2023-02-15T13:35:32.066Z,1022.4
2023-02-15T13:36:48.513Z,1022.3
2023-02-15T13:38:04.689Z,1022.3
2023-02-15T13:39:20.628Z,1022.3
2023-02-15T13:40:35.837Z,1022.3
2023-02-15T13:41:51.294Z,1022.3
2023-02-15T13:43:07.239Z,1022.4
2023-02-15T13:44:23.688Z,1022.3
2023-02-15T13:45:38.883Z,1022.3
2023-02-15T13:46:53.836Z,1022.3
2023-02-15T13:48:10.274Z,1022.2
2023-02-15T13:49:26.465Z,1022.3
2023-02-15T13:50:42.660Z,1022.2
2023-02-15T13:51:58.844Z,1022.2
2023-02-15T13:53:15.038Z,1022.3
2023-02-15T13:55:47.160Z,1022.2
2023-02-15T13:57:03.601Z,1022.2
2023-02-15T13:58:19.780Z,1022.1
2023-02-15T13:59:35.971Z,1022.1
2023-02-15T14:00:52.162Z,1022.1
2023-02-15T14:02:08.095Z,1022.2
2023-02-15T14:03:23.546Z,1022.2
2023-02-15T14:04:39.739Z,1022.2
2023-02-15T14:05:55.919Z,1022.2
2023-02-15T14:07:12.107Z,1022.2
2023-02-15T14:08:28.032Z,1022.2
2023-02-15T14:09:44.227Z,1022.2
2023-02-15T14:11:00.669Z,1022.2
2023-02-15T14:12:16.851Z,1022.2
2023-02-15T14:13:32.082Z,1022.2
2023-02-15T14:14:47.283Z,1022.2
2023-02-15T14:16:02.233Z,1022.2
2023-02-15T14:17:17.437Z,1022.3
2023-02-15T14:18:33.883Z,1022.3
2023-02-15T14:19:50.065Z,1022.3
2023-02-15T14:21:05.991Z,1022.3
2023-02-15T14:22:22.446Z,1022.3
2023-02-15T14:23:38.629Z,1022.2
2023-02-15T14:24:54.562Z,1022.3
2023-02-15T14:26:11.009Z,1022.3
2023-02-15T14:27:27.198Z,1022.3
2023-02-15T14:28:43.386Z,1022.3
2023-02-15T14:29:59.301Z,1022.3
2023-02-15T14:31:15.746Z,1022.2
2023-02-15T14:32:31.673Z,1022.2
2023-02-15T14:33:46.881Z,1022.1
2023-02-15T14:35:03.329Z,1022.2
2023-02-15T14:36:19.530Z,1022.2
2023-02-15T14:37:35.720Z,1022.1
2023-02-15T14:38:51.890Z,1022.1
2023-02-15T14:40:07.818Z,1022.1
2023-02-15T14:41:24.271Z,1022.1
2023-02-15T14:42:39.216Z,1022.1
2023-02-15T14:43:55.537Z,1022.1
2023-02-15T14:45:11.003Z,1022.1
2023-02-15T14:46:25.937Z,1022.1
2023-02-15T14:47:42.122Z,1022.1
2023-02-15T14:48:58.577Z,1022.1
2023-02-15T14:50:14.768Z,1022.1
2023-02-15T14:51:30.961Z,1022.1
2023-02-15T14:52:47.139Z,1022.1
2023-02-15T14:54:03.327Z,1022.1
2023-02-15T14:55:19.496Z,1022.1
2023-02-15T14:56:35.683Z,1022.1
2023-02-15T14:57:51.896Z,1022.1
2023-02-15T14:59:08.088Z,1022.1
2023-02-15T15:00:24.268Z,1022.1
2023-02-15T15:01:40.465Z,1022
2023-02-15T15:02:55.645Z,1022
2023-02-15T15:04:11.854Z,1022
2023-02-15T15:05:28.042Z,1022
2023-02-15T15:06:44.197Z,1022
2023-02-15T15:08:00.393Z,1021.9
2023-02-15T15:09:16.580Z,1022
2023-02-15T15:10:32.750Z,1022
2023-02-15T15:11:47.998Z,1022
2023-02-15T15:13:03.197Z,1022
2023-02-15T15:14:19.359Z,1022
2023-02-15T15:15:35.571Z,1022
2023-02-15T15:16:51.766Z,1022
2023-02-15T15:18:07.925Z,1021.9
2023-02-15T15:19:24.103Z,1021.9
2023-02-15T15:20:39.355Z,1021.9
2023-02-15T15:21:55.547Z,1021.9
2023-02-15T15:23:11.703Z,1021.9
2023-02-15T15:24:27.920Z,1021.9
2023-02-15T15:27:00.288Z,1021.8
2023-02-15T15:28:16.435Z,1021.9
2023-02-15T15:29:32.636Z,1021.9
2023-02-15T15:30:48.841Z,1021.9
2023-02-15T15:32:05.030Z,1021.9
2023-02-15T15:33:21.234Z,1021.9
2023-02-15T15:34:37.414Z,1021.9
2023-02-15T15:35:53.597Z,1021.9
2023-02-15T15:37:08.759Z,1021.9
2023-02-15T15:38:24.961Z,1021.9
2023-02-15T15:39:40.208Z,1021.9
2023-02-15T15:40:55.377Z,1021.9
2023-02-15T15:42:11.604Z,1022
2023-02-15T15:43:27.785Z,1021.9
2023-02-15T15:44:43.929Z,1021.9
2023-02-15T15:46:00.156Z,1021.9
2023-02-15T15:47:16.344Z,1021.9
2023-02-15T15:48:32.487Z,1022
2023-02-15T15:49:48.683Z,1021.9
2023-02-15T15:51:04.912Z,1021.9
2023-02-15T15:52:21.087Z,1021.9
2023-02-15T15:53:37.283Z,1021.9
2023-02-15T15:54:53.440Z,1022
2023-02-15T15:56:09.649Z,1021.9
2023-02-15T15:57:24.830Z,1021.9
2023-02-15T15:58:41.052Z,1022
2023-02-15T15:59:57.200Z,1022